createdAt,value
2022-08-09T00:02:28.612Z,17.86
2022-08-09T00:05:03.337Z,17.85
2022-08-09T00:07:44.734Z,17.83
2022-08-09T00:10:21.196Z,17.84
2022-08-09T00:12:52.841Z,17.83
2022-08-09T00:15:26.663Z,17.85
2022-08-09T00:18:05.840Z,17.83
2022-08-09T00:20:37.759Z,17.85
2022-08-09T00:23:55.966Z,17.85
2022-08-09T00:25:56.551Z,17.87
2022-08-09T00:28:27.163Z,17.87
2022-08-09T00:30:54.201Z,17.86
2022-08-09T00:33:20.973Z,17.86
2022-08-09T00:36:07.871Z,17.84
2022-08-09T00:38:35.432Z,17.83
2022-08-09T00:41:05.396Z,17.83
2022-08-09T00:44:14.737Z,17.83
2022-08-09T00:46:28.433Z,17.84
2022-08-09T00:49:11.063Z,17.83
2022-08-09T00:51:42.663Z,17.84
2022-08-09T00:54:22.981Z,17.83
2022-08-09T00:56:58.056Z,17.80
2022-08-09T00:59:41.502Z,17.76
2022-08-09T01:02:12.416Z,17.74
2022-08-09T01:05:03.186Z,17.72
2022-08-09T01:08:00.675Z,17.70
2022-08-09T01:10:38.053Z,17.66
2022-08-09T01:13:13.479Z,17.63
2022-08-09T01:15:52.579Z,17.60
2022-08-09T01:18:29.724Z,17.57
2022-08-09T01:21:16.848Z,17.56
2022-08-09T01:24:02.075Z,17.56
2022-08-09T01:26:52.977Z,17.59
2022-08-09T01:29:28.128Z,17.61
2022-08-09T01:32:32.534Z,17.62
2022-08-09T01:34:43.050Z,17.63
2022-08-09T01:37:11.089Z,17.63
2022-08-09T01:39:40.034Z,17.65
2022-08-09T01:42:11.189Z,17.66
2022-08-09T01:44:38.378Z,17.68
2022-08-09T01:47:05.341Z,17.69
2022-08-09T01:49:39.127Z,17.70
2022-08-09T01:52:11.878Z,17.71
2022-08-09T01:54:46.530Z,17.73
2022-08-09T01:57:20.711Z,17.74
2022-08-09T01:59:51.426Z,17.75
2022-08-09T02:02:31.331Z,17.77
2022-08-09T02:05:05.145Z,17.79
2022-08-09T02:08:40.656Z,17.81
2022-08-09T02:10:29.674Z,17.81
2022-08-09T02:12:58.539Z,17.82
2022-08-09T02:15:26.998Z,17.82
2022-08-09T02:18:13.313Z,17.84
2022-08-09T02:20:42.065Z,17.84
2022-08-09T02:23:28.389Z,17.84
2022-08-09T02:26:06.492Z,17.82
2022-08-09T02:28:35.942Z,17.81
2022-08-09T02:31:12.615Z,17.79
2022-08-09T02:33:58.299Z,17.77
2022-08-09T02:36:39.451Z,17.74
2022-08-09T02:39:19.799Z,17.70
2022-08-09T02:41:53.768Z,17.68
2022-08-09T02:44:29.260Z,17.65
2022-08-09T02:46:57.915Z,17.64
2022-08-09T02:49:38.396Z,17.65
2022-08-09T02:52:06.237Z,17.65
2022-08-09T02:54:34.578Z,17.65
2022-08-09T02:57:13.583Z,17.65
2022-08-09T02:59:40.925Z,17.64
2022-08-09T03:02:28.069Z,17.65
2022-08-09T03:04:55.121Z,17.64
2022-08-09T03:07:23.655Z,17.64
2022-08-09T03:09:54.248Z,17.63
2022-08-09T03:12:23.785Z,17.61
2022-08-09T03:14:50.753Z,17.61
2022-08-09T03:17:26.462Z,17.60
2022-08-09T03:20:00.174Z,17.60
2022-08-09T03:22:31.104Z,17.60
2022-08-09T03:25:05.858Z,17.61
2022-08-09T03:27:45.044Z,17.62
2022-08-09T03:30:13.704Z,17.63
2022-08-09T03:32:41.123Z,17.64
2022-08-09T03:35:15.016Z,17.65
2022-08-09T03:37:56.051Z,17.64
2022-08-09T03:40:25.454Z,17.63
2022-08-09T03:42:57.730Z,17.63
2022-08-09T03:46:04.569Z,17.66
2022-08-09T03:48:11.211Z,17.69
2022-08-09T03:50:45.685Z,17.71
2022-08-09T03:53:15.202Z,17.73
2022-08-09T03:55:42.350Z,17.75
2022-08-09T03:58:16.472Z,17.76
2022-08-09T04:00:47.990Z,17.78
2022-08-09T04:03:19.585Z,17.80
2022-08-09T04:05:51.258Z,17.83
2022-08-09T04:08:17.989Z,17.85
2022-08-09T04:10:44.766Z,17.87
2022-08-09T04:13:18.656Z,17.88
2022-08-09T04:16:20.546Z,17.90
2022-08-09T04:18:32.661Z,17.92
2022-08-09T04:21:00.299Z,17.93
2022-08-09T04:23:27.040Z,17.94
2022-08-09T04:25:54.676Z,17.94
2022-08-09T04:28:33.846Z,17.93
2022-08-09T04:31:05.692Z,17.96
2022-08-09T04:33:47.262Z,17.97
2022-08-09T04:36:21.900Z,18.00
2022-08-09T04:38:50.203Z,18.03
2022-08-09T04:41:17.024Z,18.08
2022-08-09T04:43:46.513Z,18.15
2022-08-09T04:46:37.919Z,18.20
2022-08-09T04:49:17.997Z,18.26
2022-08-09T04:51:57.329Z,18.31
2022-08-09T04:54:24.102Z,18.37
2022-08-09T04:56:51.011Z,18.42
2022-08-09T04:59:17.715Z,18.50
2022-08-09T05:01:49.411Z,18.55
2022-08-09T05:04:16.162Z,18.58
2022-08-09T05:06:44.133Z,18.61
2022-08-09T05:09:11.108Z,18.64
2022-08-09T05:11:39.768Z,18.70
2022-08-09T05:14:10.254Z,18.77
2022-08-09T05:16:43.648Z,18.83
2022-08-09T05:19:31.767Z,18.92
2022-08-09T05:22:36.126Z,19.06
2022-08-09T05:25:02.736Z,19.19
2022-08-09T05:27:31.037Z,19.28
2022-08-09T05:29:58.031Z,19.34
2022-08-09T05:32:26.358Z,19.38
2022-08-09T05:34:56.951Z,19.43
2022-08-09T05:37:23.957Z,19.47
2022-08-09T05:39:51.938Z,19.55
2022-08-09T05:42:21.337Z,19.71
2022-08-09T05:44:52.544Z,19.90
2022-08-09T05:47:23.702Z,20.05
2022-08-09T05:50:31.021Z,20.16
2022-08-09T05:52:38.913Z,20.24
2022-08-09T05:55:08.536Z,20.26
2022-08-09T05:57:51.057Z,20.30
2022-08-09T06:00:23.341Z,20.43
2022-08-09T06:02:54.257Z,20.57
2022-08-09T06:05:30.826Z,20.69
2022-08-09T06:08:19.482Z,20.77
2022-08-09T06:10:52.177Z,20.81
2022-08-09T06:13:20.469Z,20.81
2022-08-09T06:15:51.403Z,20.80
2022-08-09T06:18:23.747Z,20.79
2022-08-09T06:20:54.697Z,20.78
2022-08-09T06:23:24.009Z,20.81
2022-08-09T06:26:10.691Z,20.88
2022-08-09T06:28:37.713Z,20.93
2022-08-09T06:31:05.182Z,20.99
2022-08-09T06:33:41.729Z,21.00
2022-08-09T06:36:11.951Z,20.99
2022-08-09T06:38:42.967Z,20.96
2022-08-09T06:41:18.702Z,20.89
2022-08-09T06:43:47.153Z,20.86
2022-08-09T06:46:39.800Z,20.87
2022-08-09T06:49:01.344Z,20.87
2022-08-09T06:51:28.317Z,20.89
2022-08-09T06:53:55.449Z,20.86
2022-08-09T06:56:31.013Z,20.78
2022-08-09T07:00:55.798Z,20.74
2022-08-09T07:01:54.610Z,20.73
2022-08-09T07:04:25.148Z,20.71
2022-08-09T07:07:00.443Z,20.69
2022-08-09T07:09:56.502Z,20.68
2022-08-09T07:12:18.690Z,20.66
2022-08-09T07:14:51.031Z,20.66
2022-08-09T07:17:21.792Z,20.65
2022-08-09T07:19:55.627Z,20.64
2022-08-09T07:22:34.928Z,20.62
2022-08-09T07:25:09.806Z,20.61
2022-08-09T07:27:42.440Z,20.61
2022-08-09T07:30:21.695Z,20.60
2022-08-09T07:32:52.071Z,20.60
2022-08-09T07:35:19.350Z,20.59
2022-08-09T07:37:47.927Z,20.58
2022-08-09T07:40:18.693Z,20.59
2022-08-09T07:42:56.070Z,20.61
2022-08-09T07:45:37.350Z,20.63
2022-08-09T07:48:06.797Z,20.66
2022-08-09T07:50:36.713Z,20.69
2022-08-09T07:53:05.253Z,20.72
2022-08-09T07:55:41.407Z,20.76
2022-08-09T07:58:21.428Z,20.81
2022-08-09T08:00:59.043Z,20.83
2022-08-09T08:03:33.418Z,20.85
2022-08-09T08:06:04.672Z,20.87
2022-08-09T08:09:01.673Z,20.88
2022-08-09T08:12:11.437Z,20.89
2022-08-09T08:14:06.354Z,20.89
2022-08-09T08:16:34.563Z,20.89
2022-08-09T08:19:03.275Z,20.88
2022-08-09T08:21:31.209Z,20.88
2022-08-09T08:24:00.871Z,20.87
2022-08-09T08:26:42.155Z,20.86
2022-08-09T08:29:20.207Z,20.82
2022-08-09T08:32:03.816Z,20.80
2022-08-09T08:34:33.731Z,20.81
2022-08-09T08:37:02.131Z,20.81
2022-08-09T08:39:28.915Z,20.81
2022-08-09T08:41:59.730Z,20.82
2022-08-09T08:44:29.681Z,20.83
2022-08-09T08:47:02.295Z,20.83
2022-08-09T08:49:38.542Z,20.83
2022-08-09T08:52:50.351Z,20.85
2022-08-09T08:55:04.047Z,20.86
2022-08-09T08:57:35.073Z,20.87
2022-08-09T09:00:08.158Z,20.88
2022-08-09T09:02:43.574Z,20.84
2022-08-09T09:05:14.126Z,20.83
2022-08-09T09:07:44.723Z,20.85
2022-08-09T09:10:11.812Z,20.84
2022-08-09T09:12:38.617Z,20.85
2022-08-09T09:15:07.255Z,20.87
2022-08-09T09:17:49.182Z,20.91
2022-08-09T09:20:21.186Z,20.94
2022-08-09T09:23:01.821Z,20.97
2022-08-09T09:26:04.238Z,20.97
2022-08-09T09:29:02.405Z,20.96
2022-08-09T09:32:05.954Z,20.92
2022-08-09T09:34:14.699Z,20.90
2022-08-09T09:36:46.668Z,20.89
2022-08-09T09:39:22.847Z,20.91
2022-08-09T09:41:50.941Z,20.93
2022-08-09T09:44:25.495Z,20.95
2022-08-09T09:47:03.715Z,20.96
2022-08-09T09:49:55.958Z,20.99
2022-08-09T09:52:36.428Z,21.01
2022-08-09T09:55:24.161Z,21.03
2022-08-09T09:58:18.605Z,21.05
2022-08-09T10:00:54.171Z,21.06
2022-08-09T10:03:38.680Z,21.09
2022-08-09T10:06:06.722Z,21.11
2022-08-09T10:08:42.713Z,21.12
2022-08-09T10:12:12.353Z,21.13
2022-08-09T10:14:33.665Z,21.16
2022-08-09T10:17:50.101Z,21.19
2022-08-09T10:20:05.506Z,21.23
2022-08-09T10:22:39.119Z,21.24
2022-08-09T10:25:11.806Z,21.24
2022-08-09T10:27:55.955Z,21.27
2022-08-09T10:34:05.150Z,21.29
2022-08-09T10:36:01.295Z,21.27
2022-08-09T10:38:54.363Z,21.26
2022-08-09T10:41:17.767Z,21.25
2022-08-09T10:43:50.718Z,21.23
2022-08-09T10:46:32.901Z,21.21
2022-08-09T10:49:21.547Z,21.17
2022-08-09T10:52:13.560Z,21.14
2022-08-09T10:54:49.959Z,21.13
2022-08-09T10:57:19.985Z,21.12
2022-08-09T10:59:57.338Z,21.10
2022-08-09T11:03:10.857Z,21.11
2022-08-09T11:06:15.933Z,21.14
2022-08-09T11:08:47.417Z,21.12
2022-08-09T11:11:16.771Z,21.12
2022-08-09T11:13:50.001Z,21.10
2022-08-09T11:16:35.673Z,21.09
2022-08-09T11:19:09.432Z,21.08
2022-08-09T11:21:57.500Z,21.08
2022-08-09T11:25:11.603Z,21.08
2022-08-09T11:28:03.789Z,21.09
2022-08-09T11:30:33.843Z,21.11
2022-08-09T11:33:11.539Z,21.09
2022-08-09T11:35:50.092Z,21.06
2022-08-09T11:38:28.694Z,21.04
2022-08-09T11:41:13.638Z,21.02
2022-08-09T11:43:43.107Z,21.05
2022-08-09T11:46:10.213Z,21.05
2022-08-09T11:48:51.408Z,21.06
2022-08-09T11:53:02.905Z,21.06
2022-08-09T11:54:13.906Z,21.06
2022-08-09T11:56:42.653Z,21.05
2022-08-09T11:59:30.356Z,21.05
2022-08-09T12:02:34.389Z,21.04
2022-08-09T12:04:47.066Z,21.04
2022-08-09T12:07:14.253Z,21.04
2022-08-09T12:09:50.553Z,21.03
2022-08-09T12:12:20.276Z,21.02
2022-08-09T12:15:07.552Z,21.02
2022-08-09T12:17:43.320Z,21.05
2022-08-09T12:20:30.940Z,21.09
2022-08-09T12:22:59.648Z,21.12
2022-08-09T12:25:36.037Z,21.17
2022-08-09T12:29:12.575Z,21.20
2022-08-09T12:31:10.927Z,21.24
2022-08-09T12:33:59.356Z,21.25
2022-08-09T12:36:33.435Z,21.28
2022-08-09T12:39:00.953Z,21.30
2022-08-09T12:41:38.076Z,21.32
2022-08-09T12:44:09.853Z,21.35
2022-08-09T12:46:48.981Z,21.31
2022-08-09T12:49:16.977Z,21.37
2022-08-09T12:52:02.493Z,21.38
2022-08-09T12:55:03.289Z,21.39
2022-08-09T12:57:41.885Z,21.38
2022-08-09T13:00:25.218Z,21.38
2022-08-09T13:02:54.212Z,21.38
2022-08-09T13:05:22.425Z,21.37
2022-08-09T13:08:21.156Z,21.35
2022-08-09T13:11:22.927Z,21.34
2022-08-09T13:14:36.953Z,21.33
2022-08-09T13:16:44.841Z,21.32
2022-08-09T13:19:23.627Z,21.29
2022-08-09T13:22:36.662Z,21.28
2022-08-09T13:25:04.534Z,21.27
2022-08-09T13:27:39.861Z,21.27
2022-08-09T13:30:50.556Z,21.26
2022-08-09T13:33:12.044Z,21.24
2022-08-09T13:36:24.698Z,21.22
2022-08-09T13:38:57.661Z,21.18
2022-08-09T13:41:55.086Z,21.16
2022-08-09T13:44:08.552Z,21.14
2022-08-09T13:47:15.873Z,21.10
2022-08-09T13:49:37.484Z,21.09
2022-08-09T13:52:05.557Z,21.06
2022-08-09T13:54:36.584Z,21.05
2022-08-09T13:57:35.151Z,21.05
2022-08-09T13:59:58.077Z,21.03
2022-08-09T14:02:26.033Z,21.03
2022-08-09T14:04:59.313Z,21.05
2022-08-09T14:07:26.616Z,21.07
2022-08-09T14:10:08.150Z,21.11
2022-08-09T14:12:44.439Z,21.16
2022-08-09T14:16:07.163Z,21.21
2022-08-09T14:18:16.738Z,21.24
2022-08-09T14:20:44.960Z,21.26
2022-08-09T14:23:20.291Z,21.26
2022-08-09T14:26:05.867Z,21.24
2022-08-09T14:28:33.428Z,21.22
2022-08-09T14:31:00.184Z,21.20
2022-08-09T14:33:27.685Z,21.17
2022-08-09T14:35:55.956Z,21.16
2022-08-09T14:38:22.756Z,21.14
2022-08-09T14:41:01.132Z,21.10
2022-08-09T14:43:47.223Z,21.06
2022-08-09T14:47:00.906Z,21.00
2022-08-09T14:49:02.090Z,20.98
2022-08-09T14:51:28.842Z,20.96
2022-08-09T14:53:57.064Z,20.95
2022-08-09T14:56:26.902Z,20.94
2022-08-09T14:58:56.166Z,20.96
2022-08-09T15:01:24.781Z,20.97
2022-08-09T15:03:52.628Z,20.97
2022-08-09T15:06:21.114Z,20.97
2022-08-09T15:08:56.307Z,20.98
2022-08-09T15:11:26.375Z,20.98
2022-08-09T15:14:01.621Z,20.98
2022-08-09T15:16:31.679Z,20.97
2022-08-09T15:18:59.810Z,20.96
2022-08-09T15:21:58.159Z,20.94
2022-08-09T15:24:24.207Z,20.93
2022-08-09T15:26:53.988Z,20.92
2022-08-09T15:30:55.328Z,20.90
2022-08-09T15:32:29.515Z,20.89
2022-08-09T15:34:54.663Z,20.86
2022-08-09T15:37:36.962Z,20.85
2022-08-09T15:40:05.485Z,20.83
2022-08-09T15:42:39.379Z,20.82
2022-08-09T15:45:06.851Z,20.82
2022-08-09T15:47:51.565Z,20.83
2022-08-09T15:50:19.553Z,20.83
2022-08-09T15:52:54.998Z,20.83
2022-08-09T15:55:54.045Z,20.83
2022-08-09T15:58:24.066Z,20.84
2022-08-09T16:00:54.095Z,20.84
2022-08-09T16:03:29.465Z,20.84
2022-08-09T16:06:06.554Z,20.80
2022-08-09T16:08:33.562Z,20.80
2022-08-09T16:11:01.490Z,20.79
2022-08-09T16:14:03.451Z,20.77
2022-08-09T16:16:18.818Z,20.75
2022-08-09T16:18:47.109Z,20.74
2022-08-09T16:21:16.921Z,20.73
2022-08-09T16:23:54.927Z,20.71
2022-08-09T16:26:33.666Z,20.69
2022-08-09T16:29:11.789Z,20.68
2022-08-09T16:32:20.316Z,20.67
2022-08-09T16:34:56.471Z,20.65
2022-08-09T16:37:17.339Z,20.63
2022-08-09T16:40:02.551Z,20.61
2022-08-09T16:42:30.973Z,20.60
2022-08-09T16:44:57.725Z,20.59
2022-08-09T16:48:42.194Z,20.55
2022-08-09T16:50:29.341Z,20.51
2022-08-09T16:52:59.534Z,20.43
2022-08-09T16:55:26.626Z,20.34
2022-08-09T16:58:08.520Z,20.24
2022-08-09T17:00:36.885Z,20.12
2022-08-09T17:03:08.950Z,20.00
2022-08-09T17:06:06.532Z,19.90
2022-08-09T17:08:46.437Z,19.84
2022-08-09T17:11:40.292Z,19.79
2022-08-09T17:14:25.358Z,19.74
2022-08-09T17:16:59.808Z,19.67
2022-08-09T17:20:05.162Z,19.62
2022-08-09T17:22:31.500Z,19.58
2022-08-09T17:25:03.425Z,19.54
2022-08-09T17:27:38.219Z,19.53
2022-08-09T17:30:06.876Z,19.52
2022-08-09T17:32:39.766Z,19.50
2022-08-09T17:35:12.864Z,19.47
2022-08-09T17:38:12.643Z,19.42
2022-08-09T17:40:35.779Z,19.40
2022-08-09T17:43:32.747Z,19.40
2022-08-09T17:46:02.891Z,19.39
2022-08-09T17:48:31.390Z,19.38
2022-08-09T17:51:06.587Z,19.40
2022-08-09T17:53:43.008Z,19.42
2022-08-09T17:56:10.905Z,19.43
2022-08-09T17:58:37.702Z,19.44
2022-08-09T18:01:09.766Z,19.47
2022-08-09T18:03:49.354Z,19.49
2022-08-09T18:06:31.679Z,19.50
2022-08-09T18:09:01.789Z,19.49
2022-08-09T18:11:32.190Z,19.51
2022-08-09T18:14:20.053Z,19.52
2022-08-09T18:16:49.356Z,19.50
2022-08-09T18:20:56.206Z,19.48
2022-08-09T18:22:03.857Z,19.48
2022-08-09T18:24:31.120Z,19.46
2022-08-09T18:26:58.115Z,19.44
2022-08-09T18:30:38.122Z,19.45
2022-08-09T18:32:19.019Z,19.43
2022-08-09T18:34:46.143Z,19.43
2022-08-09T18:37:48.611Z,19.41
2022-08-09T18:40:02.326Z,19.40
2022-08-09T18:42:29.775Z,19.38
2022-08-09T18:45:00.647Z,19.35
2022-08-09T18:47:34.880Z,19.33
2022-08-09T18:50:09.004Z,19.32
2022-08-09T18:52:37.367Z,19.32
2022-08-09T18:55:06.406Z,19.30
2022-08-09T18:57:43.562Z,19.31
2022-08-09T19:00:16.705Z,19.31
2022-08-09T19:02:53.967Z,19.31
2022-08-09T19:05:48.797Z,19.28
2022-08-09T19:08:10.627Z,19.26
2022-08-09T19:10:40.858Z,19.24
2022-08-09T19:13:22.351Z,19.22
2022-08-09T19:15:56.512Z,19.20
2022-08-09T19:18:33.309Z,19.18
2022-08-09T19:21:09.408Z,19.18
2022-08-09T19:24:32.072Z,19.18
2022-08-09T19:26:31.229Z,19.18
2022-08-09T19:29:03.313Z,19.19
2022-08-09T19:31:45.078Z,19.20
2022-08-09T19:34:21.817Z,19.20
2022-08-09T19:36:54.062Z,19.20
2022-08-09T19:39:42.885Z,19.20
2022-08-09T19:42:08.755Z,19.18
2022-08-09T19:44:36.851Z,19.17
2022-08-09T19:47:04.050Z,19.16
2022-08-09T19:50:05.109Z,19.14
2022-08-09T19:52:18.274Z,19.13
2022-08-09T19:54:45.345Z,19.11
2022-08-09T19:57:15.134Z,19.09
2022-08-09T19:59:59.104Z,19.07
2022-08-09T20:04:07.340Z,19.06
2022-08-09T20:05:23.627Z,19.04
2022-08-09T20:07:58.647Z,19.03
2022-08-09T20:10:34.517Z,19.01
2022-08-09T20:13:05.094Z,19.01
2022-08-09T20:16:34.502Z,18.99
2022-08-09T20:18:20.219Z,18.97
2022-08-09T20:20:51.328Z,18.95
2022-08-09T20:23:23.095Z,18.95
2022-08-09T20:25:52.297Z,18.93
2022-08-09T20:28:28.102Z,18.92
2022-08-09T20:31:05.235Z,18.91
2022-08-09T20:33:38.921Z,18.88
2022-08-09T20:36:08.946Z,18.86
2022-08-09T20:41:31.990Z,18.78
2022-08-09T20:44:02.389Z,18.74
2022-08-09T20:46:41.914Z,18.73
2022-08-09T20:49:12.917Z,18.73
2022-08-09T20:51:41.621Z,18.72
2022-08-09T20:54:12.440Z,18.71
2022-08-09T20:56:49.882Z,18.67
2022-08-09T20:59:24.990Z,18.63
2022-08-09T21:02:10.907Z,18.59
2022-08-09T21:05:52.071Z,18.58
2022-08-09T21:07:38.886Z,18.58
2022-08-09T21:10:08.409Z,18.58
2022-08-09T21:12:36.795Z,18.57
2022-08-09T21:15:03.946Z,18.56
2022-08-09T21:18:23.296Z,18.55
2022-08-09T21:20:25.916Z,18.55
2022-08-09T21:22:54.454Z,18.53
2022-08-09T21:55:46.410Z,18.29
2022-08-09T21:58:13.570Z,18.32
2022-08-09T22:00:40.968Z,18.30
2022-08-09T22:03:19.488Z,18.29
2022-08-09T22:05:52.757Z,18.25
2022-08-09T22:08:24.597Z,18.21
2022-08-09T22:11:49.056Z,18.18
2022-08-09T22:13:38.689Z,18.15
2022-08-09T22:16:09.568Z,18.12
2022-08-09T22:18:52.795Z,18.08
2022-08-09T22:21:27.363Z,18.05
2022-08-09T22:24:16.540Z,18.03
2022-08-09T22:26:51.104Z,17.98
2022-08-09T22:29:19.123Z,17.95
2022-08-09T22:31:56.548Z,17.92
2022-08-09T22:34:27.711Z,17.89
2022-08-09T22:36:55.431Z,17.84
2022-08-09T22:39:55.678Z,17.79
2022-08-09T22:42:21.070Z,17.76
2022-08-09T22:45:00.599Z,17.73
2022-08-09T22:48:12.248Z,17.72
2022-08-09T22:50:28.006Z,17.72
2022-08-09T22:52:57.873Z,17.72
2022-08-09T22:55:39.352Z,17.73
2022-08-09T22:58:20.329Z,17.75
2022-08-09T23:00:59.950Z,17.74
2022-08-09T23:04:02.420Z,17.72
2022-08-09T23:06:14.141Z,17.70
2022-08-09T23:08:44.143Z,17.68
2022-08-09T23:11:15.566Z,17.67
2022-08-09T23:13:54.798Z,17.66
2022-08-09T23:16:22.405Z,17.67
2022-08-09T23:18:49.329Z,17.68
2022-08-09T23:21:25.307Z,17.70
2022-08-09T23:23:58.895Z,17.72
2022-08-09T23:26:37.110Z,17.74
2022-08-09T23:29:08.184Z,17.75
2022-08-09T23:31:34.959Z,17.79
2022-08-09T23:34:02.625Z,17.81
2022-08-09T23:36:30.767Z,17.84
2022-08-09T23:38:57.551Z,17.84
2022-08-09T23:41:27.659Z,17.85
2022-08-09T23:43:57.804Z,17.87
2022-08-09T23:46:24.602Z,17.87
2022-08-09T23:48:51.364Z,17.84
2022-08-09T23:51:18.102Z,17.82
2022-08-09T23:53:44.836Z,17.83
2022-08-09T23:56:14.028Z,17.83
2022-08-09T23:58:41.356Z,17.85
